createdAt,value
2023-04-15T00:02:22.838Z,93635.22
2023-04-15T00:04:49.410Z,93630.56
2023-04-15T00:07:16.031Z,93640.34
2023-04-15T00:09:42.474Z,93632.75
2023-04-15T00:12:08.896Z,93636.16
2023-04-15T00:14:35.302Z,93635.97
2023-04-15T00:17:01.773Z,93633.59
2023-04-15T00:19:28.199Z,93636.88
2023-04-15T00:21:54.613Z,93633.41
2023-04-15T00:24:21.002Z,93627.97
2023-04-15T00:26:47.433Z,93637.50
2023-04-15T00:29:13.833Z,93633.66
2023-04-15T00:31:40.226Z,93625.59
2023-04-15T00:34:06.633Z,93632.03
2023-04-15T00:36:33.015Z,93627.16
2023-04-15T00:38:59.493Z,93641.97
2023-04-15T00:41:26.083Z,93631.97
2023-04-15T00:43:52.486Z,93634.22
2023-04-15T00:46:18.979Z,93630.88
2023-04-15T00:48:45.364Z,93626.66
2023-04-15T00:51:11.765Z,93642.25
2023-04-15T00:53:38.161Z,93631.09
2023-04-15T00:56:04.549Z,93630.47
2023-04-15T00:58:30.915Z,93628.41
2023-04-15T01:00:57.310Z,93627.75
2023-04-15T01:03:23.929Z,93619.41
2023-04-15T01:05:50.439Z,93625.25
2023-04-15T01:08:16.836Z,93626.31
2023-04-15T01:10:43.233Z,93621.59
2023-04-15T01:13:09.656Z,93620.25
2023-04-15T01:15:36.051Z,93624.19
2023-04-15T01:18:02.451Z,93622.72
2023-04-15T01:20:28.954Z,93623.09
2023-04-15T01:22:55.342Z,93631.19
2023-04-15T01:25:21.743Z,93623.53
2023-04-15T01:27:48.167Z,93618.72
2023-04-15T01:30:14.550Z,93623.63
2023-04-15T01:32:41.030Z,93616.16
2023-04-15T01:35:07.495Z,93619.59
2023-04-15T01:37:33.873Z,93622.06
2023-04-15T01:40:00.351Z,93621.66
2023-04-15T01:42:26.768Z,93621.09
2023-04-15T01:44:53.165Z,93627.19
2023-04-15T01:47:19.565Z,93636.28
2023-04-15T01:49:45.978Z,93626.50
2023-04-15T01:52:12.381Z,93626.50
2023-04-15T01:54:38.764Z,93621.72
2023-04-15T01:57:05.180Z,93622.91
2023-04-15T01:59:31.596Z,93614.19
2023-04-15T02:01:58.042Z,93610.47
2023-04-15T02:04:24.496Z,93617.13
2023-04-15T02:06:50.945Z,93614.38
2023-04-15T02:09:17.337Z,93606.47
2023-04-15T02:11:43.733Z,93602.41
2023-04-15T02:14:10.140Z,93600.59
2023-04-15T02:16:36.590Z,93609.13
2023-04-15T02:19:03.098Z,93603.25
2023-04-15T02:21:29.539Z,93607.25
2023-04-15T02:23:55.915Z,93603.38
2023-04-15T02:26:22.311Z,93606.00
2023-04-15T02:28:48.690Z,93610.19
2023-04-15T02:31:15.123Z,93609.63
2023-04-15T02:33:41.531Z,93601.47
2023-04-15T02:36:07.906Z,93597.59
2023-04-15T02:38:34.363Z,93601.00
2023-04-15T02:41:00.761Z,93601.81
2023-04-15T02:43:27.158Z,93596.22
2023-04-15T02:45:53.588Z,93597.38
2023-04-15T02:48:20.045Z,93594.41
2023-04-15T02:50:46.514Z,93593.94
2023-04-15T02:53:12.897Z,93596.13
2023-04-15T02:55:39.299Z,93593.31
2023-04-15T02:58:05.686Z,93595.13
2023-04-15T03:00:32.074Z,93592.31
2023-04-15T03:02:58.681Z,93597.03
2023-04-15T03:05:25.332Z,93593.19
2023-04-15T03:07:51.749Z,93596.47
2023-04-15T03:10:18.137Z,93590.22
2023-04-15T03:12:44.522Z,93594.28
2023-04-15T03:15:10.934Z,93589.66
2023-04-15T03:17:37.346Z,93593.94
2023-04-15T03:20:03.796Z,93597.72
2023-04-15T03:22:30.207Z,93593.66
2023-04-15T03:24:56.645Z,93590.22
2023-04-15T03:27:23.079Z,93590.22
2023-04-15T03:29:49.532Z,93591.47
2023-04-15T03:32:15.981Z,93587.38
2023-04-15T03:34:42.429Z,93587.59
2023-04-15T03:37:08.861Z,93585.41
2023-04-15T03:39:35.281Z,93584.56
2023-04-15T03:42:01.715Z,93586.59
2023-04-15T03:44:28.083Z,93579.88
2023-04-15T03:46:54.531Z,93578.88
2023-04-15T03:49:20.942Z,93576.81
2023-04-15T03:51:47.451Z,93577.34
2023-04-15T03:54:13.868Z,93573.81
2023-04-15T03:56:40.265Z,93574.44
2023-04-15T03:59:06.669Z,93573.00
2023-04-15T04:01:33.110Z,93577.28
2023-04-15T04:03:59.581Z,93575.47
2023-04-15T04:06:26.029Z,93577.78
2023-04-15T04:08:52.406Z,93576.38
2023-04-15T04:11:18.817Z,93576.00
2023-04-15T04:13:45.216Z,93573.09
2023-04-15T04:16:11.662Z,93574.28
2023-04-15T04:18:38.296Z,93576.72
2023-04-15T04:21:04.682Z,93577.53
2023-04-15T04:23:31.101Z,93573.28
2023-04-15T04:25:57.478Z,93571.47
2023-04-15T04:28:23.909Z,93577.09
2023-04-15T04:30:50.312Z,93580.16
2023-04-15T04:33:16.756Z,93579.47
2023-04-15T04:35:43.130Z,93583.91
2023-04-15T04:38:09.514Z,93578.63
2023-04-15T04:40:35.909Z,93578.19
2023-04-15T04:43:02.300Z,93574.94
2023-04-15T04:45:28.729Z,93579.19
2023-04-15T04:47:55.174Z,93581.44
2023-04-15T04:50:21.556Z,93582.25
2023-04-15T04:52:47.953Z,93575.63
2023-04-15T04:55:14.327Z,93577.81
2023-04-15T04:57:40.740Z,93579.47
2023-04-15T05:00:07.141Z,93575.75
2023-04-15T05:02:33.680Z,93581.56
2023-04-15T05:05:00.242Z,93583.47
2023-04-15T05:07:26.661Z,93580.34
2023-04-15T05:09:53.066Z,93589.25
2023-04-15T05:12:19.491Z,93586.25
2023-04-15T05:14:45.880Z,93580.84
2023-04-15T05:17:12.318Z,93585.72
2023-04-15T05:19:39.918Z,93584.81
2023-04-15T05:22:06.324Z,93585.00
2023-04-15T05:24:32.747Z,93582.19
2023-04-15T05:26:59.160Z,93584.44
2023-04-15T05:29:25.545Z,93585.50
2023-04-15T05:31:51.948Z,93582.72
2023-04-15T05:34:18.370Z,93591.25
2023-04-15T05:36:44.767Z,93590.03
2023-04-15T05:39:11.156Z,93581.59
2023-04-15T05:41:37.547Z,93577.25
2023-04-15T05:44:04.184Z,93572.41
2023-04-15T05:46:30.627Z,93576.94
2023-04-15T05:48:57.105Z,93576.84
2023-04-15T05:51:23.552Z,93579.34
2023-04-15T05:53:49.963Z,93576.34
2023-04-15T05:56:16.376Z,93580.41
2023-04-15T05:58:42.772Z,93577.63
2023-04-15T06:01:09.177Z,93580.63
2023-04-15T06:03:35.854Z,93575.72
2023-04-15T06:06:02.417Z,93582.44
2023-04-15T06:08:28.827Z,93574.16
2023-04-15T06:10:55.215Z,93578.81
2023-04-15T06:13:21.638Z,93576.19
2023-04-15T06:15:48.065Z,93576.19
2023-04-15T06:18:14.494Z,93575.97
2023-04-15T06:20:40.928Z,93582.25
2023-04-15T06:23:07.409Z,93576.19
2023-04-15T06:25:33.813Z,93574.00
2023-04-15T06:28:00.209Z,93583.72
2023-04-15T06:30:26.589Z,93574.38
2023-04-15T06:32:53.055Z,93577.00
2023-04-15T06:35:19.601Z,93579.41
2023-04-15T06:37:46.019Z,93584.16
2023-04-15T06:40:12.414Z,93581.00
2023-04-15T06:42:38.893Z,93579.97
2023-04-15T06:45:05.288Z,93579.41
2023-04-15T06:47:31.727Z,93575.66
2023-04-15T06:49:58.158Z,93583.69
2023-04-15T06:52:24.559Z,93576.28
2023-04-15T06:54:50.952Z,93572.06
2023-04-15T06:57:17.339Z,93576.78
2023-04-15T06:59:43.767Z,93572.97
2023-04-15T07:02:10.204Z,93579.81
2023-04-15T07:04:37.028Z,93578.66
2023-04-15T07:07:03.544Z,93570.56
2023-04-15T07:09:29.917Z,93566.88
2023-04-15T07:11:56.322Z,93571.31
2023-04-15T07:14:22.763Z,93573.97
2023-04-15T07:16:49.243Z,93565.41
2023-04-15T07:19:15.664Z,93570.69
2023-04-15T07:21:42.132Z,93571.91
2023-04-15T07:24:08.529Z,93568.53
2023-04-15T07:26:34.934Z,93571.38
2023-04-15T07:29:01.500Z,93576.59
2023-04-15T07:31:28.206Z,93569.19
2023-04-15T07:33:54.609Z,93581.41
2023-04-15T07:36:21.022Z,93583.13
2023-04-15T07:38:47.645Z,93588.88
2023-04-15T07:41:14.046Z,93586.88
2023-04-15T07:43:40.473Z,93588.53
2023-04-15T07:46:06.904Z,93585.28
2023-04-15T07:48:34.913Z,93589.84
2023-04-15T07:51:01.936Z,93592.75
2023-04-15T07:53:28.325Z,93598.09
2023-04-15T07:55:54.725Z,93607.53
2023-04-15T07:58:21.126Z,93604.47
2023-04-15T08:00:47.521Z,93607.28
2023-04-15T08:03:14.034Z,93610.38
2023-04-15T08:05:40.497Z,93605.38
2023-04-15T08:08:06.918Z,93613.06
2023-04-15T08:10:33.655Z,93610.81
2023-04-15T08:13:00.249Z,93615.66
2023-04-15T08:15:26.828Z,93620.16
2023-04-15T08:17:55.441Z,93618.38
2023-04-15T08:20:23.019Z,93613.91
2023-04-15T08:22:49.582Z,93616.25
2023-04-15T08:25:16.030Z,93617.41
2023-04-15T08:27:42.421Z,93625.66
2023-04-15T08:30:08.814Z,93626.97
2023-04-15T08:32:35.314Z,93625.56
2023-04-15T08:35:01.710Z,93632.63
2023-04-15T08:37:28.134Z,93627.41
2023-04-15T08:39:54.710Z,93635.72
2023-04-15T08:42:21.087Z,93647.94
2023-04-15T08:44:47.523Z,93652.13
2023-04-15T08:47:25.624Z,93649.34
2023-04-15T08:49:53.089Z,93650.91
2023-04-15T08:55:06.906Z,93648.69
2023-04-15T08:57:40.196Z,93655.84
2023-04-15T09:00:11.629Z,93657.50
2023-04-15T09:02:39.447Z,93656.78
2023-04-15T09:05:06.774Z,93658.72
2023-04-15T09:07:38.377Z,93659.59
2023-04-15T09:10:06.974Z,93664.81
2023-04-15T09:18:14.296Z,93671.38
2023-04-15T09:20:41.545Z,93676.44
2023-04-15T09:23:08.110Z,93678.00
2023-04-15T09:25:35.142Z,93679.09
2023-04-15T09:28:01.964Z,93685.72
2023-04-15T09:30:35.950Z,93678.56
2023-04-15T09:33:04.510Z,93692.28
2023-04-15T09:35:31.484Z,93693.88
2023-04-15T09:37:58.692Z,93682.66
2023-04-15T09:40:25.308Z,93689.09
2023-04-15T09:42:51.894Z,93694.44
2023-04-15T09:45:18.763Z,93692.47
2023-04-15T09:47:45.266Z,93702.16
2023-04-15T09:50:12.669Z,93706.88
2023-04-15T09:52:41.268Z,93703.69
2023-04-15T09:55:08.857Z,93710.59
2023-04-15T09:57:35.435Z,93711.88
2023-04-15T10:00:02.081Z,93719.31
2023-04-15T10:02:29.712Z,93726.00
2023-04-15T10:04:57.230Z,93719.22
2023-04-15T10:07:23.810Z,93721.59
2023-04-15T10:09:50.661Z,93726.56
2023-04-15T10:12:17.136Z,93726.91
2023-04-15T10:14:43.769Z,93727.44
2023-04-15T10:17:10.276Z,93722.09
2023-04-15T10:19:36.764Z,93727.03
2023-04-15T10:22:03.198Z,93728.91
2023-04-15T10:24:29.667Z,93730.16
2023-04-15T10:26:56.517Z,93731.63
2023-04-15T10:29:23.101Z,93747.31
2023-04-15T10:31:51.784Z,93743.56
2023-04-15T10:34:20.304Z,93749.50
2023-04-15T10:36:46.686Z,93753.28
2023-04-15T10:39:13.068Z,93752.97
2023-04-15T10:41:39.453Z,93754.16
2023-04-15T10:44:06.056Z,93751.81
2023-04-15T10:46:32.545Z,93758.19
2023-04-15T10:48:58.947Z,93758.44
2023-04-15T10:51:25.333Z,93762.94
2023-04-15T10:53:51.719Z,93763.03
2023-04-15T10:56:18.089Z,93772.25
2023-04-15T10:58:44.493Z,93768.22
2023-04-15T11:01:10.886Z,93784.50
2023-04-15T11:03:37.412Z,93788.97
2023-04-15T11:06:03.930Z,93779.63
2023-04-15T11:08:30.314Z,93791.00
2023-04-15T11:10:57.023Z,93797.47
2023-04-15T11:13:23.450Z,93801.34
2023-04-15T11:15:49.870Z,93796.47
2023-04-15T11:18:16.277Z,93800.94
2023-04-15T11:20:42.671Z,93806.03
2023-04-15T11:23:15.061Z,93796.06
2023-04-15T11:25:41.868Z,93812.38
2023-04-15T11:28:08.342Z,93808.09
2023-04-15T11:30:34.801Z,93808.97
2023-04-15T11:33:01.255Z,93810.22
2023-04-15T11:35:27.674Z,93811.88
2023-04-15T11:37:54.085Z,93816.84
2023-04-15T11:40:20.482Z,93820.47
2023-04-15T11:42:49.867Z,93821.31
2023-04-15T11:45:16.562Z,93822.31
2023-04-15T11:47:42.982Z,93828.63
2023-04-15T11:50:09.403Z,93833.53
2023-04-15T11:52:35.789Z,93838.25
2023-04-15T11:55:02.191Z,93838.25
2023-04-15T11:57:28.628Z,93842.09
2023-04-15T11:59:55.037Z,93845.50
2023-04-15T12:02:21.496Z,93848.56
2023-04-15T12:04:48.160Z,93848.31
2023-04-15T12:07:14.645Z,93852.34
2023-04-15T12:09:41.037Z,93857.84
2023-04-15T12:12:07.458Z,93863.06
2023-04-15T12:14:33.830Z,93865.47
2023-04-15T12:17:00.525Z,93870.94
2023-04-15T12:19:27.574Z,93875.84
2023-04-15T12:21:54.043Z,93874.00
2023-04-15T12:24:20.442Z,93880.13
2023-04-15T12:26:46.851Z,93878.34
2023-04-15T12:29:13.287Z,93893.44
2023-04-15T12:31:39.766Z,93886.97
2023-04-15T12:34:06.439Z,93896.00
2023-04-15T12:36:32.987Z,93899.53
2023-04-15T12:38:59.385Z,93911.41
2023-04-15T12:41:25.786Z,93912.28
2023-04-15T12:43:52.179Z,93909.28
2023-04-15T12:46:18.586Z,93923.09
2023-04-15T12:48:45.019Z,93920.47
2023-04-15T12:51:11.406Z,93928.63
2023-04-15T12:53:37.811Z,93926.63
2023-04-15T12:56:04.205Z,93925.16
2023-04-15T12:58:30.638Z,93931.50
2023-04-15T13:00:57.033Z,93935.59
2023-04-15T13:03:23.497Z,93938.66
2023-04-15T13:05:50.000Z,93948.88
2023-04-15T13:08:16.645Z,93943.63
2023-04-15T13:10:43.063Z,93952.22
2023-04-15T13:13:09.460Z,93955.50
2023-04-15T13:15:35.894Z,93957.53
2023-04-15T13:18:02.413Z,93957.13
2023-04-15T13:20:29.663Z,93962.16
2023-04-15T13:22:56.251Z,93965.19
2023-04-15T13:25:24.831Z,93964.56
2023-04-15T13:27:51.243Z,93965.59
2023-04-15T13:30:17.655Z,93976.47
2023-04-15T13:32:44.136Z,93983.44
2023-04-15T13:35:10.563Z,93985.22
2023-04-15T13:37:36.951Z,93983.59
2023-04-15T13:40:03.331Z,93991.53
2023-04-15T13:42:29.732Z,93989.88
2023-04-15T13:44:56.123Z,93995.13
2023-04-15T13:47:22.566Z,93996.75
2023-04-15T13:49:48.996Z,94005.28
2023-04-15T13:52:16.452Z,94010.97
2023-04-15T13:54:44.000Z,94009.53
2023-04-15T13:57:11.595Z,94013.38
2023-04-15T13:59:38.358Z,94009.06
2023-04-15T14:02:04.859Z,94017.81
2023-04-15T14:04:31.407Z,94017.84
2023-04-15T14:06:57.808Z,94022.38
2023-04-15T14:09:26.292Z,94025.25
2023-04-15T14:11:52.959Z,94025.31
2023-04-15T14:14:19.434Z,94023.72
2023-04-15T14:16:45.893Z,94033.28
2023-04-15T14:19:12.447Z,94039.59
2023-04-15T14:21:38.835Z,94036.94
2023-04-15T14:24:05.243Z,94045.72
2023-04-15T14:26:31.620Z,94043.25
2023-04-15T14:28:58.034Z,94043.25
2023-04-15T14:31:24.449Z,94052.41
2023-04-15T14:33:50.884Z,94054.28
2023-04-15T14:36:17.308Z,94060.41
2023-04-15T14:38:43.725Z,94064.69
2023-04-15T14:41:10.108Z,94073.28
2023-04-15T14:43:36.566Z,94071.84
2023-04-15T14:46:03.025Z,94081.44
2023-04-15T14:48:29.499Z,94074.69
2023-04-15T14:50:55.942Z,94084.47
2023-04-15T14:53:22.318Z,94087.75
2023-04-15T14:55:48.717Z,94089.16
2023-04-15T14:58:15.126Z,94092.41
2023-04-15T15:00:41.601Z,94100.47
2023-04-15T15:03:08.097Z,94097.78
2023-04-15T15:05:34.675Z,94109.19
2023-04-15T15:08:01.187Z,94115.13
2023-04-15T15:10:44.672Z,94122.59
2023-04-15T15:13:13.987Z,94124.25
2023-04-15T15:15:40.476Z,94128.97
2023-04-15T15:18:06.946Z,94121.84
2023-04-15T15:20:33.423Z,94135.00
2023-04-15T15:22:59.849Z,94136.00
2023-04-15T15:25:26.257Z,94143.69
2023-04-15T15:27:52.689Z,94146.09
2023-04-15T15:30:19.093Z,94149.94
2023-04-15T15:32:45.610Z,94151.53
2023-04-15T15:35:12.057Z,94150.84
2023-04-15T15:37:38.459Z,94152.22
2023-04-15T15:40:04.943Z,94147.69
2023-04-15T15:42:31.346Z,94144.63
2023-04-15T15:44:57.722Z,94153.19
2023-04-15T15:47:24.146Z,94155.25
2023-04-15T15:49:50.629Z,94165.38
2023-04-15T15:52:17.022Z,94159.59
2023-04-15T15:54:43.466Z,94163.00
2023-04-15T15:57:09.852Z,94169.25
2023-04-15T15:59:36.249Z,94173.66
2023-04-15T16:02:03.087Z,94173.75
2023-04-15T16:04:29.811Z,94179.00
2023-04-15T16:06:56.402Z,94180.91
2023-04-15T16:09:22.848Z,94188.19
2023-04-15T16:11:49.254Z,94188.66
2023-04-15T16:14:15.665Z,94196.13
2023-04-15T16:16:42.157Z,94191.88
2023-04-15T16:19:08.592Z,94197.16
2023-04-15T16:21:35.060Z,94202.22
2023-04-15T16:24:01.702Z,94201.88
2023-04-15T16:26:28.118Z,94204.97
2023-04-15T16:28:54.524Z,94212.06
2023-04-15T16:31:20.930Z,94217.00
2023-04-15T16:33:47.366Z,94213.97
2023-04-15T16:36:13.860Z,94222.81
2023-04-15T16:38:40.260Z,94229.25
2023-04-15T16:41:06.745Z,94228.03
2023-04-15T16:43:33.157Z,94232.41
2023-04-15T16:45:59.606Z,94237.13
2023-04-15T16:48:26.102Z,94244.81
2023-04-15T16:50:52.574Z,94261.22
2023-04-15T16:53:19.002Z,94262.63
2023-04-15T16:55:45.412Z,94260.72
2023-04-15T16:58:11.808Z,94265.09
2023-04-15T17:00:38.255Z,94274.16
2023-04-15T17:03:04.876Z,94275.69
2023-04-15T17:05:31.425Z,94275.25
2023-04-15T17:07:57.858Z,94280.63
2023-04-15T17:10:24.268Z,94281.00
2023-04-15T17:12:50.650Z,94279.91
2023-04-15T17:15:17.062Z,94292.00
2023-04-15T17:17:43.532Z,94290.91
2023-04-15T17:20:09.943Z,94298.13
2023-04-15T17:22:36.364Z,94305.28
2023-04-15T17:25:02.777Z,94300.72
2023-04-15T17:27:29.250Z,94310.03
2023-04-15T17:29:55.688Z,94314.31
2023-04-15T17:32:22.128Z,94311.03
2023-04-15T17:34:49.642Z,94319.44
2023-04-15T17:37:17.659Z,94323.47
2023-04-15T17:39:44.071Z,94336.19
2023-04-15T17:42:10.497Z,94329.78
2023-04-15T17:44:36.901Z,94343.25
2023-04-15T17:47:03.334Z,94340.16
2023-04-15T17:49:29.769Z,94344.94
2023-04-15T17:51:56.177Z,94348.56
2023-04-15T17:54:22.613Z,94350.16
2023-04-15T17:56:49.014Z,94360.44
2023-04-15T17:59:15.405Z,94364.31
2023-04-15T18:01:41.890Z,94358.19
2023-04-15T18:04:08.708Z,94371.38
2023-04-15T18:06:35.342Z,94374.66
2023-04-15T18:09:01.795Z,94371.69
2023-04-15T18:11:28.212Z,94373.97
2023-04-15T18:13:54.654Z,94377.25
2023-04-15T18:16:21.100Z,94385.69
2023-04-15T18:18:47.532Z,94400.03
2023-04-15T18:21:14.094Z,94403.53
2023-04-15T18:23:40.578Z,94410.22
2023-04-15T18:26:07.024Z,94394.88
2023-04-15T18:28:33.455Z,94367.72
2023-04-15T18:30:59.874Z,94359.31
2023-04-15T18:33:26.308Z,94387.69
2023-04-15T18:35:52.700Z,94388.19
2023-04-15T18:38:19.117Z,94395.03
2023-04-15T18:40:45.566Z,94401.28
2023-04-15T18:43:11.979Z,94401.00
2023-04-15T18:45:38.493Z,94414.53
2023-04-15T18:48:04.939Z,94428.88
2023-04-15T18:50:31.372Z,94434.00
2023-04-15T18:52:57.766Z,94433.19
2023-04-15T18:55:24.180Z,94438.63
2023-04-15T18:57:50.549Z,94438.31
2023-04-15T19:00:17.831Z,94441.13
2023-04-15T19:02:44.431Z,94446.06
2023-04-15T19:05:11.024Z,94453.75
2023-04-15T19:07:37.441Z,94463.44
2023-04-15T19:10:03.877Z,94463.78
2023-04-15T19:12:30.487Z,94464.25
2023-04-15T19:14:56.919Z,94482.84
2023-04-15T19:17:23.374Z,94487.78
2023-04-15T19:19:49.821Z,94489.53
2023-04-15T19:22:16.206Z,94498.94
2023-04-15T19:24:42.615Z,94506.31
2023-04-15T19:27:09.013Z,94508.25
2023-04-15T19:29:35.390Z,94506.28
2023-04-15T19:32:01.788Z,94514.69
2023-04-15T19:34:28.162Z,94512.34
2023-04-15T19:36:54.603Z,94512.50
2023-04-15T19:39:21.007Z,94522.88
2023-04-15T19:41:47.424Z,94517.91
2023-04-15T19:44:13.912Z,94520.34
2023-04-15T19:46:40.373Z,94519.41
2023-04-15T19:49:07.040Z,94517.72
2023-04-15T19:51:33.682Z,94525.78
2023-04-15T19:54:00.118Z,94523.28
2023-04-15T19:56:26.527Z,94525.94
2023-04-15T19:58:53.337Z,94523.28
2023-04-15T20:01:19.809Z,94530.34
2023-04-15T20:03:46.447Z,94532.34
2023-04-15T20:06:13.039Z,94533.81
2023-04-15T20:08:39.435Z,94527.78
2023-04-15T20:11:05.893Z,94533.69
2023-04-15T20:13:32.315Z,94529.75
2023-04-15T20:15:58.853Z,94532.22
2023-04-15T20:18:25.290Z,94530.13
2023-04-15T20:20:51.716Z,94538.50
2023-04-15T20:23:18.168Z,94531.44
2023-04-15T20:25:44.591Z,94529.19
2023-04-15T20:28:10.985Z,94533.13
2023-04-15T20:30:37.444Z,94538.06
2023-04-15T20:33:03.913Z,94538.75
2023-04-15T20:35:30.357Z,94535.13
2023-04-15T20:37:56.756Z,94536.44
2023-04-15T20:40:23.220Z,94540.41
2023-04-15T20:42:49.969Z,94548.28
2023-04-15T20:45:18.562Z,94546.50
2023-04-15T20:47:45.017Z,94543.84
2023-04-15T20:50:11.841Z,94547.66
2023-04-15T20:52:39.413Z,94547.50
2023-04-15T20:55:06.025Z,94549.78
2023-04-15T20:57:33.574Z,94553.25
2023-04-15T20:59:59.968Z,94552.28
2023-04-15T21:02:26.536Z,94548.53
2023-04-15T21:04:53.070Z,94548.84
2023-04-15T21:07:19.479Z,94549.19
2023-04-15T21:09:45.895Z,94558.59
2023-04-15T21:12:12.317Z,94560.03
2023-04-15T21:14:38.740Z,94564.81
2023-04-15T21:17:07.789Z,94566.44
2023-04-15T21:19:35.940Z,94562.41
2023-04-15T21:22:02.533Z,94562.00
2023-04-15T21:24:28.982Z,94566.63
2023-04-15T21:26:55.387Z,94571.41
2023-04-15T21:29:21.770Z,94574.88
2023-04-15T21:31:48.908Z,94573.47
2023-04-15T21:34:15.316Z,94576.06
2023-04-15T21:36:41.706Z,94577.47
2023-04-15T21:39:08.287Z,94575.13
2023-04-15T21:41:34.771Z,94584.34
2023-04-15T21:44:01.216Z,94589.50
2023-04-15T21:46:32.971Z,94581.59
2023-04-15T21:49:01.498Z,94584.25
2023-04-15T21:51:27.895Z,94583.81
2023-04-15T21:53:54.338Z,94592.25
2023-04-15T21:56:20.734Z,94593.41
2023-04-15T21:58:47.177Z,94599.06
2023-04-15T22:01:13.676Z,94597.28
2023-04-15T22:03:40.193Z,94595.47
2023-04-15T22:06:07.219Z,94604.03
2023-04-15T22:08:48.236Z,94604.88
2023-04-15T22:11:22.221Z,94608.66
2023-04-15T22:13:48.603Z,94606.84
2023-04-15T22:16:15.059Z,94612.75
2023-04-15T22:18:41.505Z,94603.88
2023-04-15T22:21:07.940Z,94603.88
2023-04-15T22:23:34.387Z,94611.78
2023-04-15T22:26:02.106Z,94601.25
2023-04-15T22:28:28.506Z,94601.59
2023-04-15T22:30:54.927Z,94600.47
2023-04-15T22:33:21.350Z,94602.09
2023-04-15T22:35:47.773Z,94604.75
2023-04-15T22:38:14.196Z,94607.53
2023-04-15T22:40:40.619Z,94605.72
2023-04-15T22:43:07.050Z,94619.03
2023-04-15T22:45:33.443Z,94616.22
2023-04-15T22:47:59.916Z,94615.41
2023-04-15T22:50:26.962Z,94616.72
2023-04-15T22:52:53.540Z,94617.69
2023-04-15T22:55:21.129Z,94621.66
2023-04-15T22:57:47.732Z,94615.91
2023-04-15T23:00:14.308Z,94625.78
2023-04-15T23:02:42.940Z,94626.91
2023-04-15T23:05:11.968Z,94632.84
2023-04-15T23:07:39.321Z,94622.16
2023-04-15T23:10:06.735Z,94625.13
2023-04-15T23:12:34.343Z,94634.66
2023-04-15T23:15:01.919Z,94636.78
2023-04-15T23:17:28.550Z,94637.44
2023-04-15T23:19:56.111Z,94634.25
2023-04-15T23:22:22.586Z,94638.44
2023-04-15T23:24:49.002Z,94628.75
2023-04-15T23:27:15.441Z,94637.31
2023-04-15T23:29:41.854Z,94648.00
2023-04-15T23:32:08.264Z,94643.44
2023-04-15T23:34:34.674Z,94646.91
2023-04-15T23:37:01.138Z,94649.53
2023-04-15T23:39:27.614Z,94638.78
2023-04-15T23:41:54.116Z,94637.81
2023-04-15T23:44:20.985Z,94642.09
2023-04-15T23:46:48.642Z,94658.88
2023-04-15T23:49:15.070Z,94656.09
2023-04-15T23:51:41.447Z,94646.06
2023-04-15T23:54:07.837Z,94659.06
2023-04-15T23:56:34.911Z,94645.72
2023-04-15T23:59:01.511Z,94642.63
